sensor_id;sensor_type;location;lat;lon;timestamp;temperature;humidity
56478;DHT22;42382;53.210;5.772;2024-03-08T00:02:20;2.50;89.10
56478;DHT22;42382;53.210;5.772;2024-03-08T00:04:45;2.60;89.10
56478;DHT22;42382;53.210;5.772;2024-03-08T00:07:11;2.60;89.20
56478;DHT22;42382;53.210;5.772;2024-03-08T00:09:38;2.50;89.20
56478;DHT22;42382;53.210;5.772;2024-03-08T00:12:04;2.50;89.20
56478;DHT22;42382;53.210;5.772;2024-03-08T00:14:30;2.50;89.20
56478;DHT22;42382;53.210;5.772;2024-03-08T00:16:55;2.50;89.30
56478;DHT22;42382;53.210;5.772;2024-03-08T00:19:27;2.50;89.30
56478;DHT22;42382;53.210;5.772;2024-03-08T00:21:53;2.50;89.40
56478;DHT22;42382;53.210;5.772;2024-03-08T00:24:18;2.60;89.30
56478;DHT22;42382;53.210;5.772;2024-03-08T00:26:44;2.50;89.40
56478;DHT22;42382;53.210;5.772;2024-03-08T00:29:09;2.50;89.40
56478;DHT22;42382;53.210;5.772;2024-03-08T00:31:35;2.50;89.40
56478;DHT22;42382;53.210;5.772;2024-03-08T00:34:00;2.50;89.40
56478;DHT22;42382;53.210;5.772;2024-03-08T00:36:26;2.50;89.40
56478;DHT22;42382;53.210;5.772;2024-03-08T00:38:52;2.50;89.40
56478;DHT22;42382;53.210;5.772;2024-03-08T00:41:20;2.50;89.50
56478;DHT22;42382;53.210;5.772;2024-03-08T00:43:45;2.50;89.50
56478;DHT22;42382;53.210;5.772;2024-03-08T00:46:13;2.50;89.50
56478;DHT22;42382;53.210;5.772;2024-03-08T00:48:40;2.50;89.60
56478;DHT22;42382;53.210;5.772;2024-03-08T00:51:08;2.50;89.60
56478;DHT22;42382;53.210;5.772;2024-03-08T00:53:34;2.40;89.60
56478;DHT22;42382;53.210;5.772;2024-03-08T00:55:59;2.40;89.60
56478;DHT22;42382;53.210;5.772;2024-03-08T00:58:25;2.40;89.60
56478;DHT22;42382;53.210;5.772;2024-03-08T01:00:50;2.40;89.60
56478;DHT22;42382;53.210;5.772;2024-03-08T01:03:16;2.40;89.60
56478;DHT22;42382;53.210;5.772;2024-03-08T01:05:43;2.40;89.60
56478;DHT22;42382;53.210;5.772;2024-03-08T01:08:08;2.40;89.70
56478;DHT22;42382;53.210;5.772;2024-03-08T01:10:37;2.30;89.70
56478;DHT22;42382;53.210;5.772;2024-03-08T01:13:02;2.30;89.70
56478;DHT22;42382;53.210;5.772;2024-03-08T01:15:28;2.30;89.70
56478;DHT22;42382;53.210;5.772;2024-03-08T01:17:54;2.30;89.70
56478;DHT22;42382;53.210;5.772;2024-03-08T01:20:19;2.30;89.70
56478;DHT22;42382;53.210;5.772;2024-03-08T01:22:46;2.30;89.80
56478;DHT22;42382;53.210;5.772;2024-03-08T01:25:14;2.20;89.80
56478;DHT22;42382;53.210;5.772;2024-03-08T01:27:40;2.20;89.80
56478;DHT22;42382;53.210;5.772;2024-03-08T01:30:06;2.20;89.80
56478;DHT22;42382;53.210;5.772;2024-03-08T01:32:32;2.20;89.80
56478;DHT22;42382;53.210;5.772;2024-03-08T01:34:57;2.10;89.90
56478;DHT22;42382;53.210;5.772;2024-03-08T01:37:23;2.10;89.80
56478;DHT22;42382;53.210;5.772;2024-03-08T01:39:49;2.10;89.90
56478;DHT22;42382;53.210;5.772;2024-03-08T01:42:15;2.10;89.90
56478;DHT22;42382;53.210;5.772;2024-03-08T01:44:43;2.10;89.90
56478;DHT22;42382;53.210;5.772;2024-03-08T01:47:10;2.10;90.00
56478;DHT22;42382;53.210;5.772;2024-03-08T01:49:37;2.10;90.00
56478;DHT22;42382;53.210;5.772;2024-03-08T01:52:03;2.00;90.00
56478;DHT22;42382;53.210;5.772;2024-03-08T01:54:29;2.00;90.10
56478;DHT22;42382;53.210;5.772;2024-03-08T01:56:56;2.00;90.10
56478;DHT22;42382;53.210;5.772;2024-03-08T01:59:25;2.00;90.10
56478;DHT22;42382;53.210;5.772;2024-03-08T02:01:54;2.00;90.10
56478;DHT22;42382;53.210;5.772;2024-03-08T02:04:21;2.00;90.10
56478;DHT22;42382;53.210;5.772;2024-03-08T02:06:47;2.10;90.10
56478;DHT22;42382;53.210;5.772;2024-03-08T02:09:13;2.00;90.10
56478;DHT22;42382;53.210;5.772;2024-03-08T02:11:41;2.00;90.20
56478;DHT22;42382;53.210;5.772;2024-03-08T02:14:07;2.00;90.30
56478;DHT22;42382;53.210;5.772;2024-03-08T02:16:32;2.00;90.20
56478;DHT22;42382;53.210;5.772;2024-03-08T02:18:58;2.00;90.20
56478;DHT22;42382;53.210;5.772;2024-03-08T02:21:24;2.00;90.20
56478;DHT22;42382;53.210;5.772;2024-03-08T02:23:50;2.00;90.20
56478;DHT22;42382;53.210;5.772;2024-03-08T02:26:20;2.00;90.30
56478;DHT22;42382;53.210;5.772;2024-03-08T02:28:46;1.90;90.30
56478;DHT22;42382;53.210;5.772;2024-03-08T02:31:12;2.00;90.30
56478;DHT22;42382;53.210;5.772;2024-03-08T02:33:37;1.90;90.30
56478;DHT22;42382;53.210;5.772;2024-03-08T02:36:04;1.90;90.30
56478;DHT22;42382;53.210;5.772;2024-03-08T02:38:31;1.90;90.30
56478;DHT22;42382;53.210;5.772;2024-03-08T02:40:57;1.90;90.30
56478;DHT22;42382;53.210;5.772;2024-03-08T02:43:23;1.90;90.30
56478;DHT22;42382;53.210;5.772;2024-03-08T02:45:50;1.90;90.30
56478;DHT22;42382;53.210;5.772;2024-03-08T02:48:16;1.90;90.30
56478;DHT22;42382;53.210;5.772;2024-03-08T02:50:41;1.80;90.30
56478;DHT22;42382;53.210;5.772;2024-03-08T02:53:10;1.80;90.30
56478;DHT22;42382;53.210;5.772;2024-03-08T02:55:40;1.80;90.30
56478;DHT22;42382;53.210;5.772;2024-03-08T02:58:07;1.80;90.40
56478;DHT22;42382;53.210;5.772;2024-03-08T03:00:36;1.80;90.40
56478;DHT22;42382;53.210;5.772;2024-03-08T03:03:01;1.70;90.40
56478;DHT22;42382;53.210;5.772;2024-03-08T03:05:28;1.70;90.30
56478;DHT22;42382;53.210;5.772;2024-03-08T03:07:55;1.70;90.30
56478;DHT22;42382;53.210;5.772;2024-03-08T03:10:22;1.70;90.40
56478;DHT22;42382;53.210;5.772;2024-03-08T03:12:48;1.70;90.40
56478;DHT22;42382;53.210;5.772;2024-03-08T03:15:17;1.70;90.40
56478;DHT22;42382;53.210;5.772;2024-03-08T03:17:47;1.70;90.40
56478;DHT22;42382;53.210;5.772;2024-03-08T03:20:13;1.60;90.40
56478;DHT22;42382;53.210;5.772;2024-03-08T03:22:39;1.60;90.40
56478;DHT22;42382;53.210;5.772;2024-03-08T03:25:07;1.60;90.50
56478;DHT22;42382;53.210;5.772;2024-03-08T03:27:33;1.60;90.50
56478;DHT22;42382;53.210;5.772;2024-03-08T03:29:59;1.60;90.50
56478;DHT22;42382;53.210;5.772;2024-03-08T03:32:44;1.60;90.50
56478;DHT22;42382;53.210;5.772;2024-03-08T03:35:13;1.60;90.50
56478;DHT22;42382;53.210;5.772;2024-03-08T03:37:40;1.60;90.50
56478;DHT22;42382;53.210;5.772;2024-03-08T03:40:08;1.60;90.50
56478;DHT22;42382;53.210;5.772;2024-03-08T03:42:34;1.50;90.50
56478;DHT22;42382;53.210;5.772;2024-03-08T03:45:00;1.50;90.50
56478;DHT22;42382;53.210;5.772;2024-03-08T03:47:25;1.50;90.40
56478;DHT22;42382;53.210;5.772;2024-03-08T03:49:52;1.50;90.50
56478;DHT22;42382;53.210;5.772;2024-03-08T03:52:19;1.50;90.40
56478;DHT22;42382;53.210;5.772;2024-03-08T03:54:45;1.50;90.40
56478;DHT22;42382;53.210;5.772;2024-03-08T03:57:11;1.40;90.40
56478;DHT22;42382;53.210;5.772;2024-03-08T03:59:37;1.50;90.50
56478;DHT22;42382;53.210;5.772;2024-03-08T04:02:03;1.40;90.50
56478;DHT22;42382;53.210;5.772;2024-03-08T04:04:29;1.50;90.50
56478;DHT22;42382;53.210;5.772;2024-03-08T04:06:55;1.40;90.40
56478;DHT22;42382;53.210;5.772;2024-03-08T04:09:20;1.40;90.40
56478;DHT22;42382;53.210;5.772;2024-03-08T04:11:48;1.40;90.50
56478;DHT22;42382;53.210;5.772;2024-03-08T04:14:14;1.40;90.40
56478;DHT22;42382;53.210;5.772;2024-03-08T04:16:39;1.40;90.40
56478;DHT22;42382;53.210;5.772;2024-03-08T04:19:05;1.40;90.50
56478;DHT22;42382;53.210;5.772;2024-03-08T04:21:31;1.40;90.50
56478;DHT22;42382;53.210;5.772;2024-03-08T04:23:56;1.40;90.40
56478;DHT22;42382;53.210;5.772;2024-03-08T04:26:22;1.40;90.40
56478;DHT22;42382;53.210;5.772;2024-03-08T04:28:48;1.40;90.30
56478;DHT22;42382;53.210;5.772;2024-03-08T04:31:13;1.30;90.20
56478;DHT22;42382;53.210;5.772;2024-03-08T04:33:41;1.30;90.10
56478;DHT22;42382;53.210;5.772;2024-03-08T04:36:07;1.30;90.20
56478;DHT22;42382;53.210;5.772;2024-03-08T04:38:33;1.40;90.20
56478;DHT22;42382;53.210;5.772;2024-03-08T04:40:59;1.40;90.40
56478;DHT22;42382;53.210;5.772;2024-03-08T04:43:25;1.30;90.40
56478;DHT22;42382;53.210;5.772;2024-03-08T04:45:52;1.30;90.40
56478;DHT22;42382;53.210;5.772;2024-03-08T04:48:19;1.40;90.40
56478;DHT22;42382;53.210;5.772;2024-03-08T04:50:44;1.30;90.40
56478;DHT22;42382;53.210;5.772;2024-03-08T04:53:10;1.30;90.40
56478;DHT22;42382;53.210;5.772;2024-03-08T04:55:36;1.30;90.40
56478;DHT22;42382;53.210;5.772;2024-03-08T04:58:03;1.30;90.40
56478;DHT22;42382;53.210;5.772;2024-03-08T05:00:29;1.30;90.40
56478;DHT22;42382;53.210;5.772;2024-03-08T05:02:55;1.30;90.30
56478;DHT22;42382;53.210;5.772;2024-03-08T05:05:21;1.30;90.40
56478;DHT22;42382;53.210;5.772;2024-03-08T05:07:48;1.30;90.30
56478;DHT22;42382;53.210;5.772;2024-03-08T05:10:13;1.30;90.30
56478;DHT22;42382;53.210;5.772;2024-03-08T05:12:43;1.30;90.20
56478;DHT22;42382;53.210;5.772;2024-03-08T05:15:09;1.30;90.20
56478;DHT22;42382;53.210;5.772;2024-03-08T05:17:35;1.30;90.10
56478;DHT22;42382;53.210;5.772;2024-03-08T05:20:00;1.30;90.10
56478;DHT22;42382;53.210;5.772;2024-03-08T05:22:26;1.30;90.10
56478;DHT22;42382;53.210;5.772;2024-03-08T05:24:52;1.30;90.30
56478;DHT22;42382;53.210;5.772;2024-03-08T05:27:20;1.30;90.30
56478;DHT22;42382;53.210;5.772;2024-03-08T05:29:46;1.20;90.10
56478;DHT22;42382;53.210;5.772;2024-03-08T05:32:12;1.20;90.10
56478;DHT22;42382;53.210;5.772;2024-03-08T05:34:38;1.20;90.10
56478;DHT22;42382;53.210;5.772;2024-03-08T05:37:03;1.20;90.10
56478;DHT22;42382;53.210;5.772;2024-03-08T05:39:29;1.20;90.10
56478;DHT22;42382;53.210;5.772;2024-03-08T05:41:55;1.10;90.00
56478;DHT22;42382;53.210;5.772;2024-03-08T05:44:21;1.10;90.00
56478;DHT22;42382;53.210;5.772;2024-03-08T05:46:47;1.10;90.10
56478;DHT22;42382;53.210;5.772;2024-03-08T05:49:12;1.10;90.00
56478;DHT22;42382;53.210;5.772;2024-03-08T05:51:39;1.10;89.90
56478;DHT22;42382;53.210;5.772;2024-03-08T05:54:07;1.10;90.00
56478;DHT22;42382;53.210;5.772;2024-03-08T05:56:35;1.00;90.10
56478;DHT22;42382;53.210;5.772;2024-03-08T05:59:01;1.00;90.10
56478;DHT22;42382;53.210;5.772;2024-03-08T06:01:28;1.00;90.00
56478;DHT22;42382;53.210;5.772;2024-03-08T06:03:54;1.00;90.00
56478;DHT22;42382;53.210;5.772;2024-03-08T06:06:23;1.00;90.10
56478;DHT22;42382;53.210;5.772;2024-03-08T06:08:50;0.90;90.00
56478;DHT22;42382;53.210;5.772;2024-03-08T06:11:16;0.90;90.00
56478;DHT22;42382;53.210;5.772;2024-03-08T06:13:46;0.90;89.90
56478;DHT22;42382;53.210;5.772;2024-03-08T06:16:11;0.90;89.90
56478;DHT22;42382;53.210;5.772;2024-03-08T06:18:37;0.90;89.90
56478;DHT22;42382;53.210;5.772;2024-03-08T06:21:05;0.90;89.90
56478;DHT22;42382;53.210;5.772;2024-03-08T06:23:35;0.90;90.20
56478;DHT22;42382;53.210;5.772;2024-03-08T06:26:09;0.90;90.20
56478;DHT22;42382;53.210;5.772;2024-03-08T06:28:35;0.90;90.00
56478;DHT22;42382;53.210;5.772;2024-03-08T06:31:01;0.90;90.10
56478;DHT22;42382;53.210;5.772;2024-03-08T06:33:28;0.90;90.20
56478;DHT22;42382;53.210;5.772;2024-03-08T06:35:54;0.90;90.20
56478;DHT22;42382;53.210;5.772;2024-03-08T06:38:23;0.90;90.10
56478;DHT22;42382;53.210;5.772;2024-03-08T06:40:49;0.90;90.10
56478;DHT22;42382;53.210;5.772;2024-03-08T06:43:14;0.90;90.10
56478;DHT22;42382;53.210;5.772;2024-03-08T06:45:47;0.90;90.10
56478;DHT22;42382;53.210;5.772;2024-03-08T06:48:19;0.90;90.20
56478;DHT22;42382;53.210;5.772;2024-03-08T06:50:46;0.90;90.20
56478;DHT22;42382;53.210;5.772;2024-03-08T06:53:14;1.00;90.20
56478;DHT22;42382;53.210;5.772;2024-03-08T06:55:40;1.00;90.20
56478;DHT22;42382;53.210;5.772;2024-03-08T06:58:06;1.00;90.20
56478;DHT22;42382;53.210;5.772;2024-03-08T07:00:39;1.00;90.20
56478;DHT22;42382;53.210;5.772;2024-03-08T07:03:08;1.00;90.20
56478;DHT22;42382;53.210;5.772;2024-03-08T07:05:37;1.10;90.30
56478;DHT22;42382;53.210;5.772;2024-03-08T07:08:03;1.10;90.20
56478;DHT22;42382;53.210;5.772;2024-03-08T07:10:29;1.10;90.10
56478;DHT22;42382;53.210;5.772;2024-03-08T07:12:54;1.10;90.10
56478;DHT22;42382;53.210;5.772;2024-03-08T07:15:20;1.10;90.10
56478;DHT22;42382;53.210;5.772;2024-03-08T07:17:47;1.10;90.00
56478;DHT22;42382;53.210;5.772;2024-03-08T07:20:18;1.20;90.10
56478;DHT22;42382;53.210;5.772;2024-03-08T07:22:45;1.30;90.10
56478;DHT22;42382;53.210;5.772;2024-03-08T07:25:16;1.20;90.10
56478;DHT22;42382;53.210;5.772;2024-03-08T07:27:50;1.30;89.90
56478;DHT22;42382;53.210;5.772;2024-03-08T07:30:19;1.30;89.90
56478;DHT22;42382;53.210;5.772;2024-03-08T07:33:07;1.30;89.90
56478;DHT22;42382;53.210;5.772;2024-03-08T07:35:33;1.30;89.60
56478;DHT22;42382;53.210;5.772;2024-03-08T07:38:11;1.40;89.60
56478;DHT22;42382;53.210;5.772;2024-03-08T07:40:41;1.50;89.70
56478;DHT22;42382;53.210;5.772;2024-03-08T07:43:10;1.50;89.70
56478;DHT22;42382;53.210;5.772;2024-03-08T07:45:39;1.50;89.70
56478;DHT22;42382;53.210;5.772;2024-03-08T07:48:06;1.60;89.80
56478;DHT22;42382;53.210;5.772;2024-03-08T07:50:38;1.60;89.60
56478;DHT22;42382;53.210;5.772;2024-03-08T07:53:04;1.70;89.60
56478;DHT22;42382;53.210;5.772;2024-03-08T07:55:32;1.70;89.40
56478;DHT22;42382;53.210;5.772;2024-03-08T07:57:58;1.80;89.10
56478;DHT22;42382;53.210;5.772;2024-03-08T08:00:24;1.80;88.80
56478;DHT22;42382;53.210;5.772;2024-03-08T08:02:53;1.90;88.60
56478;DHT22;42382;53.210;5.772;2024-03-08T08:05:18;1.90;88.60
56478;DHT22;42382;53.210;5.772;2024-03-08T08:07:45;2.00;88.60
56478;DHT22;42382;53.210;5.772;2024-03-08T08:10:14;2.00;88.40
56478;DHT22;42382;53.210;5.772;2024-03-08T08:12:44;2.00;88.50
56478;DHT22;42382;53.210;5.772;2024-03-08T08:15:10;2.10;88.30
56478;DHT22;42382;53.210;5.772;2024-03-08T08:17:36;2.10;88.60
56478;DHT22;42382;53.210;5.772;2024-03-08T08:20:01;2.20;88.60
56478;DHT22;42382;53.210;5.772;2024-03-08T08:22:30;2.30;88.40
56478;DHT22;42382;53.210;5.772;2024-03-08T08:24:56;2.30;87.90
56478;DHT22;42382;53.210;5.772;2024-03-08T08:27:22;2.30;87.80
56478;DHT22;42382;53.210;5.772;2024-03-08T08:29:47;2.40;87.80
56478;DHT22;42382;53.210;5.772;2024-03-08T08:32:15;2.40;87.90
56478;DHT22;42382;53.210;5.772;2024-03-08T08:34:40;2.50;87.50
56478;DHT22;42382;53.210;5.772;2024-03-08T08:37:07;2.60;87.50
56478;DHT22;42382;53.210;5.772;2024-03-08T08:39:35;2.60;87.70
56478;DHT22;42382;53.210;5.772;2024-03-08T08:42:00;2.60;87.70
56478;DHT22;42382;53.210;5.772;2024-03-08T08:44:26;2.70;86.90
56478;DHT22;42382;53.210;5.772;2024-03-08T08:46:52;2.80;86.80
56478;DHT22;42382;53.210;5.772;2024-03-08T08:49:19;2.80;86.50
56478;DHT22;42382;53.210;5.772;2024-03-08T08:51:52;2.90;87.10
56478;DHT22;42382;53.210;5.772;2024-03-08T08:54:18;3.00;86.80
56478;DHT22;42382;53.210;5.772;2024-03-08T08:56:44;3.00;86.70
56478;DHT22;42382;53.210;5.772;2024-03-08T08:59:10;3.10;85.90
56478;DHT22;42382;53.210;5.772;2024-03-08T09:01:41;3.30;86.20
56478;DHT22;42382;53.210;5.772;2024-03-08T09:04:07;4.00;86.50
56478;DHT22;42382;53.210;5.772;2024-03-08T09:06:33;5.20;86.10
56478;DHT22;42382;53.210;5.772;2024-03-08T09:08:59;6.40;83.50
56478;DHT22;42382;53.210;5.772;2024-03-08T09:11:24;7.30;78.90
56478;DHT22;42382;53.210;5.772;2024-03-08T09:13:53;8.10;77.50
56478;DHT22;42382;53.210;5.772;2024-03-08T09:16:18;8.80;75.80
56478;DHT22;42382;53.210;5.772;2024-03-08T09:18:44;9.30;73.20
56478;DHT22;42382;53.210;5.772;2024-03-08T09:21:13;9.70;69.70
56478;DHT22;42382;53.210;5.772;2024-03-08T09:23:39;10.10;69.20
56478;DHT22;42382;53.210;5.772;2024-03-08T09:26:05;10.30;67.70
56478;DHT22;42382;53.210;5.772;2024-03-08T09:28:34;10.40;65.00
56478;DHT22;42382;53.210;5.772;2024-03-08T09:31:01;10.70;63.40
56478;DHT22;42382;53.210;5.772;2024-03-08T09:33:26;10.90;61.50
56478;DHT22;42382;53.210;5.772;2024-03-08T09:35:54;10.90;59.90
56478;DHT22;42382;53.210;5.772;2024-03-08T09:38:19;10.90;59.40
56478;DHT22;42382;53.210;5.772;2024-03-08T09:40:46;10.90;61.10
56478;DHT22;42382;53.210;5.772;2024-03-08T09:43:11;11.00;57.20
56478;DHT22;42382;53.210;5.772;2024-03-08T09:45:37;11.00;57.30
56478;DHT22;42382;53.210;5.772;2024-03-08T09:48:10;11.00;58.00
56478;DHT22;42382;53.210;5.772;2024-03-08T09:50:40;11.30;58.40
56478;DHT22;42382;53.210;5.772;2024-03-08T09:53:09;11.50;56.90
56478;DHT22;42382;53.210;5.772;2024-03-08T09:55:37;11.70;57.40
56478;DHT22;42382;53.210;5.772;2024-03-08T09:58:08;11.90;56.60
56478;DHT22;42382;53.210;5.772;2024-03-08T10:00:53;12.10;55.90
56478;DHT22;42382;53.210;5.772;2024-03-08T10:03:20;12.30;55.50
56478;DHT22;42382;53.210;5.772;2024-03-08T10:05:45;12.40;52.80
56478;DHT22;42382;53.210;5.772;2024-03-08T10:08:12;12.40;53.20
56478;DHT22;42382;53.210;5.772;2024-03-08T10:10:39;12.40;54.60
56478;DHT22;42382;53.210;5.772;2024-03-08T10:13:08;12.70;54.80
56478;DHT22;42382;53.210;5.772;2024-03-08T10:15:35;12.60;53.60
56478;DHT22;42382;53.210;5.772;2024-03-08T10:18:00;12.70;52.50
56478;DHT22;42382;53.210;5.772;2024-03-08T10:20:31;12.60;52.30
56478;DHT22;42382;53.210;5.772;2024-03-08T10:23:03;12.50;50.70
56478;DHT22;42382;53.210;5.772;2024-03-08T10:25:31;12.10;50.50
56478;DHT22;42382;53.210;5.772;2024-03-08T10:27:56;12.00;52.20
56478;DHT22;42382;53.210;5.772;2024-03-08T10:30:22;12.10;52.40
56478;DHT22;42382;53.210;5.772;2024-03-08T10:32:48;12.30;52.70
56478;DHT22;42382;53.210;5.772;2024-03-08T10:35:14;12.50;51.40
56478;DHT22;42382;53.210;5.772;2024-03-08T10:37:47;12.40;49.90
56478;DHT22;42382;53.210;5.772;2024-03-08T10:40:17;12.40;50.80
56478;DHT22;42382;53.210;5.772;2024-03-08T10:42:56;12.40;51.00
56478;DHT22;42382;53.210;5.772;2024-03-08T10:45:36;12.40;49.80
56478;DHT22;42382;53.210;5.772;2024-03-08T10:48:34;12.40;50.70
56478;DHT22;42382;53.210;5.772;2024-03-08T10:51:04;12.60;51.20
56478;DHT22;42382;53.210;5.772;2024-03-08T10:53:30;12.90;49.30
56478;DHT22;42382;53.210;5.772;2024-03-08T10:55:59;12.90;49.90
56478;DHT22;42382;53.210;5.772;2024-03-08T10:58:26;12.80;49.20
56478;DHT22;42382;53.210;5.772;2024-03-08T11:00:58;12.90;50.20
56478;DHT22;42382;53.210;5.772;2024-03-08T11:03:45;13.00;49.30
56478;DHT22;42382;53.210;5.772;2024-03-08T11:06:29;13.40;49.00
56478;DHT22;42382;53.210;5.772;2024-03-08T11:08:55;13.40;50.00
56478;DHT22;42382;53.210;5.772;2024-03-08T11:11:31;13.40;48.60
56478;DHT22;42382;53.210;5.772;2024-03-08T11:13:58;13.40;48.60
56478;DHT22;42382;53.210;5.772;2024-03-08T11:19:04;13.70;48.70
56478;DHT22;42382;53.210;5.772;2024-03-08T11:21:31;13.80;49.30
56478;DHT22;42382;53.210;5.772;2024-03-08T11:24:06;13.90;48.80
56478;DHT22;42382;53.210;5.772;2024-03-08T11:26:32;14.00;47.70
56478;DHT22;42382;53.210;5.772;2024-03-08T11:34:33;13.90;47.40
56478;DHT22;42382;53.210;5.772;2024-03-08T11:36:59;13.70;47.50
56478;DHT22;42382;53.210;5.772;2024-03-08T11:39:26;13.70;48.30
56478;DHT22;42382;53.210;5.772;2024-03-08T11:41:51;13.70;49.20
56478;DHT22;42382;53.210;5.772;2024-03-08T11:44:17;13.80;48.50
56478;DHT22;42382;53.210;5.772;2024-03-08T11:46:43;13.80;48.70
56478;DHT22;42382;53.210;5.772;2024-03-08T11:49:14;13.90;47.90
56478;DHT22;42382;53.210;5.772;2024-03-08T11:51:40;13.90;47.80
56478;DHT22;42382;53.210;5.772;2024-03-08T11:54:06;14.00;48.00
56478;DHT22;42382;53.210;5.772;2024-03-08T11:56:35;13.90;48.10
56478;DHT22;42382;53.210;5.772;2024-03-08T11:59:02;13.50;47.70
56478;DHT22;42382;53.210;5.772;2024-03-08T12:01:28;13.30;48.90
56478;DHT22;42382;53.210;5.772;2024-03-08T12:03:54;13.00;49.00
56478;DHT22;42382;53.210;5.772;2024-03-08T12:06:21;12.50;50.60
56478;DHT22;42382;53.210;5.772;2024-03-08T12:08:47;11.80;51.90
56478;DHT22;42382;53.210;5.772;2024-03-08T12:11:17;11.10;54.00
56478;DHT22;42382;53.210;5.772;2024-03-08T12:13:46;10.60;55.50
56478;DHT22;42382;53.210;5.772;2024-03-08T12:16:20;10.30;57.20
56478;DHT22;42382;53.210;5.772;2024-03-08T12:18:47;9.90;58.50
56478;DHT22;42382;53.210;5.772;2024-03-08T12:21:14;9.60;59.10
56478;DHT22;42382;53.210;5.772;2024-03-08T12:23:43;9.40;59.80
56478;DHT22;42382;53.210;5.772;2024-03-08T12:26:15;9.40;61.30
56478;DHT22;42382;53.210;5.772;2024-03-08T12:28:45;9.40;62.50
56478;DHT22;42382;53.210;5.772;2024-03-08T12:31:14;9.30;62.50
56478;DHT22;42382;53.210;5.772;2024-03-08T12:33:51;9.20;62.90
56478;DHT22;42382;53.210;5.772;2024-03-08T12:36:18;9.20;62.60
56478;DHT22;42382;53.210;5.772;2024-03-08T12:38:44;9.20;62.60
56478;DHT22;42382;53.210;5.772;2024-03-08T12:41:17;9.20;64.20
56478;DHT22;42382;53.210;5.772;2024-03-08T12:43:44;9.10;63.10
56478;DHT22;42382;53.210;5.772;2024-03-08T12:46:17;9.10;64.00
56478;DHT22;42382;53.210;5.772;2024-03-08T12:48:45;9.10;64.20
56478;DHT22;42382;53.210;5.772;2024-03-08T12:51:19;9.10;64.20
56478;DHT22;42382;53.210;5.772;2024-03-08T12:53:46;9.20;63.80
56478;DHT22;42382;53.210;5.772;2024-03-08T12:56:12;9.20;63.60
56478;DHT22;42382;53.210;5.772;2024-03-08T12:58:38;9.20;64.00
56478;DHT22;42382;53.210;5.772;2024-03-08T13:01:04;9.20;64.80
56478;DHT22;42382;53.210;5.772;2024-03-08T13:03:35;9.20;64.60
56478;DHT22;42382;53.210;5.772;2024-03-08T13:06:05;9.30;65.00
56478;DHT22;42382;53.210;5.772;2024-03-08T13:08:35;9.30;65.20
56478;DHT22;42382;53.210;5.772;2024-03-08T13:11:01;9.30;65.30
56478;DHT22;42382;53.210;5.772;2024-03-08T13:13:28;9.30;64.70
56478;DHT22;42382;53.210;5.772;2024-03-08T13:15:54;9.30;64.80
56478;DHT22;42382;53.210;5.772;2024-03-08T13:18:22;9.30;63.90
56478;DHT22;42382;53.210;5.772;2024-03-08T13:20:48;9.30;65.30
56478;DHT22;42382;53.210;5.772;2024-03-08T13:23:17;9.40;65.70
56478;DHT22;42382;53.210;5.772;2024-03-08T13:25:43;9.40;65.90
56478;DHT22;42382;53.210;5.772;2024-03-08T13:28:09;9.40;65.90
56478;DHT22;42382;53.210;5.772;2024-03-08T13:30:36;9.40;65.50
56478;DHT22;42382;53.210;5.772;2024-03-08T13:33:02;9.40;64.10
56478;DHT22;42382;53.210;5.772;2024-03-08T13:35:30;9.40;65.30
56478;DHT22;42382;53.210;5.772;2024-03-08T13:37:56;9.40;65.20
56478;DHT22;42382;53.210;5.772;2024-03-08T13:40:22;9.50;64.70
56478;DHT22;42382;53.210;5.772;2024-03-08T13:42:48;9.50;65.20
56478;DHT22;42382;53.210;5.772;2024-03-08T13:45:16;9.50;65.40
56478;DHT22;42382;53.210;5.772;2024-03-08T13:47:49;9.50;64.80
56478;DHT22;42382;53.210;5.772;2024-03-08T13:50:17;9.50;64.50
56478;DHT22;42382;53.210;5.772;2024-03-08T13:52:47;9.60;64.80
56478;DHT22;42382;53.210;5.772;2024-03-08T13:55:19;9.60;64.70
56478;DHT22;42382;53.210;5.772;2024-03-08T13:57:45;9.60;64.60
56478;DHT22;42382;53.210;5.772;2024-03-08T14:00:12;9.70;65.50
56478;DHT22;42382;53.210;5.772;2024-03-08T14:02:38;9.70;64.10
56478;DHT22;42382;53.210;5.772;2024-03-08T14:05:09;9.60;64.60
56478;DHT22;42382;53.210;5.772;2024-03-08T14:07:36;9.70;65.50
56478;DHT22;42382;53.210;5.772;2024-03-08T14:10:02;9.70;65.00
56478;DHT22;42382;53.210;5.772;2024-03-08T14:12:28;9.70;63.90
56478;DHT22;42382;53.210;5.772;2024-03-08T14:14:54;9.70;64.70
56478;DHT22;42382;53.210;5.772;2024-03-08T14:17:20;9.60;65.30
56478;DHT22;42382;53.210;5.772;2024-03-08T14:19:45;9.60;65.20
56478;DHT22;42382;53.210;5.772;2024-03-08T14:22:11;9.70;65.30
56478;DHT22;42382;53.210;5.772;2024-03-08T14:24:42;9.70;64.70
56478;DHT22;42382;53.210;5.772;2024-03-08T14:27:09;9.80;65.00
56478;DHT22;42382;53.210;5.772;2024-03-08T14:29:35;9.80;65.80
56478;DHT22;42382;53.210;5.772;2024-03-08T14:32:01;9.80;65.20
56478;DHT22;42382;53.210;5.772;2024-03-08T14:34:28;9.80;64.50
56478;DHT22;42382;53.210;5.772;2024-03-08T14:36:56;9.80;65.10
56478;DHT22;42382;53.210;5.772;2024-03-08T14:39:22;9.80;65.50
56478;DHT22;42382;53.210;5.772;2024-03-08T14:41:52;9.90;65.10
56478;DHT22;42382;53.210;5.772;2024-03-08T14:44:19;9.90;63.80
56478;DHT22;42382;53.210;5.772;2024-03-08T14:46:45;9.90;64.50
56478;DHT22;42382;53.210;5.772;2024-03-08T14:49:11;9.90;63.60
56478;DHT22;42382;53.210;5.772;2024-03-08T14:51:37;9.90;63.40
56478;DHT22;42382;53.210;5.772;2024-03-08T14:54:02;9.80;62.20
56478;DHT22;42382;53.210;5.772;2024-03-08T14:56:32;9.80;63.70
56478;DHT22;42382;53.210;5.772;2024-03-08T14:58:58;9.80;64.20
56478;DHT22;42382;53.210;5.772;2024-03-08T15:01:25;9.80;64.80
56478;DHT22;42382;53.210;5.772;2024-03-08T15:03:55;9.80;64.90
56478;DHT22;42382;53.210;5.772;2024-03-08T15:06:21;9.80;64.20
56478;DHT22;42382;53.210;5.772;2024-03-08T15:08:48;9.80;64.60
56478;DHT22;42382;53.210;5.772;2024-03-08T15:11:13;9.80;64.80
56478;DHT22;42382;53.210;5.772;2024-03-08T15:13:47;9.80;65.90
56478;DHT22;42382;53.210;5.772;2024-03-08T15:16:17;9.80;64.70
56478;DHT22;42382;53.210;5.772;2024-03-08T15:18:44;9.80;64.20
56478;DHT22;42382;53.210;5.772;2024-03-08T15:21:14;9.80;66.00
56478;DHT22;42382;53.210;5.772;2024-03-08T15:23:45;9.90;65.60
56478;DHT22;42382;53.210;5.772;2024-03-08T15:26:16;10.10;64.40
56478;DHT22;42382;53.210;5.772;2024-03-08T15:28:43;10.20;64.40
56478;DHT22;42382;53.210;5.772;2024-03-08T15:31:10;10.20;64.00
56478;DHT22;42382;53.210;5.772;2024-03-08T15:33:37;10.20;64.10
56478;DHT22;42382;53.210;5.772;2024-03-08T15:36:08;10.20;64.00
56478;DHT22;42382;53.210;5.772;2024-03-08T15:38:37;10.10;63.10
56478;DHT22;42382;53.210;5.772;2024-03-08T15:41:06;10.00;64.00
56478;DHT22;42382;53.210;5.772;2024-03-08T15:43:41;9.90;63.00
56478;DHT22;42382;53.210;5.772;2024-03-08T15:46:07;9.80;63.90
56478;DHT22;42382;53.210;5.772;2024-03-08T15:48:34;9.80;65.30
56478;DHT22;42382;53.210;5.772;2024-03-08T15:51:04;9.80;66.00
56478;DHT22;42382;53.210;5.772;2024-03-08T15:53:33;9.70;63.80